Terminal Aerodrome Forecast
Issued by NWS Sterling, VA

Current Version | Previous Version | Text Only | Print | Product List | Glossary Off
Versions: 1 2 3 4 5 6 7 8 9 10 11 12

000
FTUS41 KLWX 150500
TAFMRB
TAF
KMRB 150520Z 1506/1606 00000KT P6SM FEW050
     FM150900 00000KT P6SM FEW040 FEW250
     FM151100 00000KT 3SM BR FEW040 FEW250
     FM151300 00000KT P6SM FEW040 FEW250
     FM160300 VRB03KT P6SM BKN040 OVC060=

USA.gov is the U.S. government's official web portal to all federal, state and local government web resources and services.